createdAt,value
2022-11-08T00:01:32.318Z,6.68
2022-11-08T00:03:59.686Z,4.72
2022-11-08T00:06:45.068Z,8.93
2022-11-08T00:09:29.948Z,6.78
2022-11-08T00:12:15.149Z,9.25
2022-11-08T00:14:41.589Z,4.55
2022-11-08T00:17:07.992Z,5.00
2022-11-08T00:19:34.285Z,3.78
2022-11-08T00:22:00.595Z,3.13
2022-11-08T00:24:26.883Z,5.90
2022-11-08T00:26:53.164Z,4.15
2022-11-08T00:29:19.472Z,7.70
2022-11-08T00:31:45.799Z,10.73
2022-11-08T00:34:12.079Z,4.57
2022-11-08T00:36:38.340Z,8.30
2022-11-08T00:39:04.742Z,3.88
2022-11-08T00:41:31.012Z,3.47
2022-11-08T00:43:57.290Z,11.00
2022-11-08T00:46:23.570Z,8.38
2022-11-08T00:48:49.853Z,5.78
2022-11-08T00:51:16.149Z,7.53
2022-11-08T00:53:42.509Z,10.52
2022-11-08T00:56:10.913Z,7.93
2022-11-08T00:58:37.326Z,4.60
2022-11-08T01:01:29.985Z,6.88
2022-11-08T01:03:56.369Z,5.85
2022-11-08T01:06:23.321Z,4.03
2022-11-08T01:08:49.856Z,7.88
2022-11-08T01:11:17.881Z,11.23
2022-11-08T01:13:44.363Z,10.32
2022-11-08T01:16:12.483Z,4.63
2022-11-08T01:18:38.858Z,9.15
2022-11-08T01:21:05.621Z,5.22
2022-11-08T01:23:32.328Z,15.85
2022-11-08T01:26:02.223Z,5.13
2022-11-08T01:28:28.496Z,6.38
2022-11-08T01:30:54.768Z,5.35
2022-11-08T01:33:21.046Z,3.08
2022-11-08T01:35:47.330Z,9.68
2022-11-08T01:38:14.061Z,10.38
2022-11-08T01:40:47.119Z,6.20
2022-11-08T01:43:25.357Z,6.32
2022-11-08T01:46:12.986Z,6.90
2022-11-08T01:48:42.245Z,10.50
2022-11-08T01:51:09.542Z,4.75
2022-11-08T01:53:36.077Z,6.90
2022-11-08T01:56:02.763Z,9.98
2022-11-08T01:58:32.881Z,13.10
2022-11-08T02:01:01.444Z,5.55
2022-11-08T02:03:29.061Z,5.90
2022-11-08T02:05:55.725Z,10.13
2022-11-08T02:08:21.994Z,4.65
2022-11-08T02:10:51.527Z,9.68
2022-11-08T02:13:22.319Z,5.60
2022-11-08T02:15:48.598Z,4.75
2022-11-08T02:18:16.664Z,18.08
2022-11-08T02:21:03.657Z,9.32
2022-11-08T02:23:35.135Z,5.80
2022-11-08T02:26:01.853Z,10.30
2022-11-08T02:28:28.141Z,5.50
2022-11-08T02:30:54.759Z,8.60
2022-11-08T02:33:22.566Z,6.18
2022-11-08T02:35:53.684Z,9.85
2022-11-08T02:38:21.048Z,12.48
2022-11-08T02:40:48.510Z,8.68
2022-11-08T02:43:14.882Z,9.05
2022-11-08T02:45:41.173Z,9.65
2022-11-08T02:48:07.455Z,12.27
2022-11-08T02:50:33.782Z,14.70
2022-11-08T02:53:00.177Z,8.65
2022-11-08T02:55:26.509Z,12.98
2022-11-08T02:57:52.771Z,8.82
2022-11-08T03:00:19.150Z,8.13
2022-11-08T03:02:45.690Z,10.60
2022-11-08T03:05:12.041Z,7.32
2022-11-08T03:07:38.315Z,9.05
2022-11-08T03:10:04.788Z,7.90
2022-11-08T03:12:31.051Z,6.95
2022-11-08T03:14:57.333Z,10.15
2022-11-08T03:17:23.602Z,7.15
2022-11-08T03:19:49.880Z,10.02
2022-11-08T03:22:16.184Z,7.38
2022-11-08T03:24:42.469Z,6.32
2022-11-08T03:27:08.764Z,7.45
2022-11-08T03:29:35.053Z,7.35
2022-11-08T03:32:01.325Z,7.78
2022-11-08T03:34:27.615Z,10.40
2022-11-08T03:36:53.880Z,13.95
2022-11-08T03:39:20.158Z,10.35
2022-11-08T03:41:46.416Z,11.02
2022-11-08T03:44:12.706Z,5.38
2022-11-08T03:46:38.974Z,15.50
2022-11-08T03:49:05.271Z,7.68
2022-11-08T03:51:31.552Z,5.78
2022-11-08T03:53:57.831Z,7.07
2022-11-08T03:56:24.182Z,16.05
2022-11-08T03:58:50.478Z,13.57
2022-11-08T04:01:16.800Z,9.02
2022-11-08T04:03:43.210Z,12.32
2022-11-08T04:06:09.474Z,15.25
2022-11-08T04:08:35.759Z,16.38
2022-11-08T04:11:21.996Z,8.82
2022-11-08T04:14:06.721Z,12.70
2022-11-08T04:16:33.451Z,10.20
2022-11-08T04:19:18.697Z,6.80
2022-11-08T04:21:48.748Z,8.73
2022-11-08T04:24:15.232Z,10.80
2022-11-08T04:26:41.532Z,13.70
2022-11-08T04:29:08.846Z,8.68
2022-11-08T04:31:35.656Z,15.15
2022-11-08T04:34:02.211Z,9.88
2022-11-08T04:36:28.482Z,9.00
2022-11-08T04:38:54.787Z,7.72
2022-11-08T04:41:22.368Z,8.18
2022-11-08T04:43:48.934Z,21.52
2022-11-08T04:46:16.810Z,11.75
2022-11-08T04:48:43.841Z,10.10
2022-11-08T04:51:11.403Z,8.35
2022-11-08T04:53:37.765Z,16.50
2022-11-08T04:56:05.758Z,6.50
2022-11-08T04:58:36.032Z,15.88
2022-11-08T05:01:03.033Z,11.05
2022-11-08T05:03:29.669Z,11.35
2022-11-08T05:05:55.954Z,8.30
2022-11-08T05:08:22.275Z,7.22
2022-11-08T05:10:48.586Z,10.55
2022-11-08T05:13:14.860Z,11.07
2022-11-08T05:15:41.184Z,6.38
2022-11-08T05:18:07.463Z,12.32
2022-11-08T05:20:52.109Z,13.35
2022-11-08T05:23:24.172Z,8.95
2022-11-08T05:25:51.124Z,6.13
2022-11-08T05:28:17.760Z,14.30
2022-11-08T05:30:44.242Z,13.82
2022-11-08T05:33:13.453Z,10.70
2022-11-08T05:35:39.720Z,8.93
2022-11-08T05:38:06.086Z,15.95
2022-11-08T05:40:33.627Z,8.55
2022-11-08T05:43:00.020Z,8.70
2022-11-08T05:45:26.308Z,6.88
2022-11-08T05:47:52.733Z,11.02
2022-11-08T05:50:19.673Z,15.45
2022-11-08T05:52:46.337Z,14.73
2022-11-08T05:55:14.077Z,13.43
2022-11-08T05:57:43.653Z,10.40
2022-11-08T06:00:10.776Z,18.98
2022-11-08T06:02:37.132Z,12.70
2022-11-08T06:05:03.778Z,10.18
2022-11-08T06:07:30.067Z,7.68
2022-11-08T06:09:56.348Z,12.50
2022-11-08T06:12:22.632Z,8.20
2022-11-08T06:14:49.105Z,16.83
2022-11-08T06:17:15.505Z,8.20
2022-11-08T06:19:42.082Z,8.45
2022-11-08T06:22:08.424Z,9.70
2022-11-08T06:24:34.706Z,8.13
2022-11-08T06:27:00.982Z,13.48
2022-11-08T06:29:27.394Z,8.82
2022-11-08T06:31:53.928Z,10.95
2022-11-08T06:34:20.273Z,17.90
2022-11-08T06:36:46.901Z,11.85
2022-11-08T06:39:13.190Z,6.25
2022-11-08T06:41:39.486Z,13.65
2022-11-08T06:44:05.908Z,11.52
2022-11-08T06:46:54.140Z,10.75
2022-11-08T06:49:20.432Z,9.13
2022-11-08T06:51:46.707Z,14.60
2022-11-08T06:54:17.559Z,11.52
2022-11-08T06:56:44.608Z,8.73
2022-11-08T06:59:11.112Z,12.02
2022-11-08T07:01:39.844Z,11.02
2022-11-08T07:04:08.417Z,6.68
2022-11-08T07:06:34.985Z,4.57
2022-11-08T07:09:01.283Z,8.13
2022-11-08T07:11:27.588Z,6.40
2022-11-08T07:13:53.875Z,5.03
2022-11-08T07:16:20.152Z,11.15
2022-11-08T07:18:46.816Z,7.03
2022-11-08T07:21:13.344Z,14.85
2022-11-08T07:23:39.608Z,9.27
2022-11-08T07:26:08.782Z,6.22
2022-11-08T07:28:35.447Z,8.35
2022-11-08T07:31:02.954Z,15.32
2022-11-08T07:33:29.987Z,8.30
2022-11-08T07:35:56.666Z,9.93
2022-11-08T07:38:23.118Z,10.93
2022-11-08T07:40:49.501Z,10.90
2022-11-08T07:43:16.561Z,14.10
2022-11-08T07:45:42.929Z,6.40
2022-11-08T07:48:12.365Z,8.57
2022-11-08T07:50:40.128Z,13.15
2022-11-08T07:53:06.439Z,4.90
2022-11-08T07:55:35.372Z,7.10
2022-11-08T07:58:02.109Z,7.40
2022-11-08T08:00:29.494Z,11.18
2022-11-08T08:03:02.214Z,7.18
2022-11-08T08:05:29.517Z,7.03
2022-11-08T08:07:59.250Z,11.20
2022-11-08T08:10:26.199Z,8.07
2022-11-08T08:12:52.601Z,6.82
2022-11-08T08:15:19.168Z,7.13
2022-11-08T08:17:45.460Z,6.72
2022-11-08T08:20:11.915Z,4.70
2022-11-08T08:22:43.049Z,6.97
2022-11-08T08:25:09.510Z,4.85
2022-11-08T08:27:35.834Z,7.68
2022-11-08T08:30:02.118Z,9.20
2022-11-08T08:32:31.622Z,7.68
2022-11-08T08:34:58.138Z,15.98
2022-11-08T08:37:24.469Z,5.60
2022-11-08T08:39:50.750Z,11.80
2022-11-08T08:42:17.094Z,5.85
2022-11-08T08:44:43.376Z,7.75
2022-11-08T08:47:09.649Z,7.28
2022-11-08T08:49:35.957Z,4.05
2022-11-08T08:52:02.264Z,6.38
2022-11-08T08:54:29.640Z,6.72
2022-11-08T08:56:55.983Z,3.28
2022-11-08T09:02:08.882Z,3.83
2022-11-08T09:04:35.778Z,4.88
2022-11-08T09:07:02.174Z,4.38
2022-11-08T09:09:28.565Z,7.43
2022-11-08T09:11:54.961Z,5.18
2022-11-08T09:14:21.247Z,8.77
2022-11-08T09:16:47.776Z,2.28
2022-11-08T09:19:14.091Z,2.00
2022-11-08T09:21:40.446Z,4.78
2022-11-08T09:24:06.967Z,3.55
2022-11-08T09:26:33.297Z,4.07
2022-11-08T09:29:00.458Z,5.10
2022-11-08T09:31:26.916Z,2.60
2022-11-08T09:33:53.360Z,2.80
2022-11-08T09:36:19.652Z,4.53
2022-11-08T09:38:45.936Z,1.98
2022-11-08T09:41:31.094Z,4.63
2022-11-08T09:44:04.614Z,5.35
2022-11-08T09:46:49.520Z,1.42
2022-11-08T09:49:37.691Z,3.45
2022-11-08T09:52:04.556Z,4.07
2022-11-08T09:54:40.209Z,3.33
2022-11-08T09:57:06.708Z,4.05
2022-11-08T09:59:50.537Z,6.70
2022-11-08T10:02:18.693Z,3.38
2022-11-08T10:04:47.731Z,2.85
2022-11-08T10:07:33.836Z,2.38
2022-11-08T10:10:16.758Z,5.38
2022-11-08T10:13:01.540Z,5.88
2022-11-08T10:15:34.786Z,1.52
2022-11-08T10:18:01.065Z,3.90
2022-11-08T10:20:31.533Z,2.13
2022-11-08T10:23:06.740Z,1.10
2022-11-08T10:25:36.940Z,3.28
2022-11-08T10:28:03.569Z,2.72
2022-11-08T10:30:34.503Z,7.65
2022-11-08T10:33:00.824Z,7.03
2022-11-08T10:35:31.774Z,5.10
2022-11-08T10:37:59.021Z,3.15
2022-11-08T10:40:31.278Z,2.40
2022-11-08T10:43:05.467Z,5.32
2022-11-08T10:45:34.498Z,3.28
2022-11-08T10:48:00.816Z,1.92
2022-11-08T10:50:35.036Z,3.38
2022-11-08T10:53:02.523Z,2.30
2022-11-08T10:55:31.020Z,4.68
2022-11-08T10:57:57.308Z,1.85
2022-11-08T11:00:25.410Z,1.45
2022-11-08T11:02:55.884Z,2.65
2022-11-08T11:05:28.173Z,3.33
2022-11-08T11:07:59.211Z,3.25
2022-11-08T11:10:35.105Z,4.10
2022-11-08T11:13:04.162Z,6.63
2022-11-08T11:15:31.137Z,2.22
2022-11-08T11:17:57.456Z,3.22
2022-11-08T11:20:24.053Z,3.60
2022-11-08T11:22:51.030Z,2.25
2022-11-08T11:25:19.112Z,3.50
2022-11-08T11:27:48.630Z,4.05
2022-11-08T11:30:28.223Z,2.70
2022-11-08T11:33:17.583Z,4.05
2022-11-08T11:35:46.570Z,2.35
2022-11-08T11:38:41.981Z,1.07
2022-11-08T11:41:12.598Z,1.83
2022-11-08T11:43:43.747Z,1.83
2022-11-08T11:46:15.402Z,1.17
2022-11-08T11:48:44.569Z,1.23
2022-11-08T11:51:10.996Z,1.70
2022-11-08T11:53:39.328Z,1.35
2022-11-08T11:56:12.350Z,5.40
2022-11-08T11:58:42.824Z,2.10
2022-11-08T12:01:26.828Z,2.35
2022-11-08T12:04:10.162Z,0.90
2022-11-08T12:06:36.471Z,2.92
2022-11-08T12:09:05.521Z,3.75
2022-11-08T12:11:37.874Z,3.30
2022-11-08T12:14:23.063Z,5.72
2022-11-08T12:17:21.758Z,2.22
2022-11-08T12:20:06.760Z,2.17
2022-11-08T12:22:42.078Z,3.65
2022-11-08T12:25:26.129Z,0.80
2022-11-08T12:27:55.031Z,3.08
2022-11-08T12:30:41.586Z,2.70
2022-11-08T12:33:11.059Z,3.70
2022-11-08T12:35:49.723Z,1.70
2022-11-08T12:38:37.724Z,0.93
2022-11-08T12:41:09.179Z,1.67
2022-11-08T12:43:35.452Z,1.88
2022-11-08T12:46:06.070Z,2.28
2022-11-08T12:48:51.158Z,3.90
2022-11-08T12:51:26.237Z,2.65
2022-11-08T12:54:04.589Z,2.78
2022-11-08T12:56:39.969Z,1.55
2022-11-08T12:59:15.105Z,0.43
2022-11-08T13:01:41.621Z,1.30
2022-11-08T13:04:13.282Z,1.42
2022-11-08T13:06:48.531Z,1.50
2022-11-08T13:09:33.847Z,0.93
2022-11-08T13:12:10.697Z,4.38
2022-11-08T13:14:41.084Z,1.65
2022-11-08T13:17:17.091Z,1.08
2022-11-08T13:19:46.538Z,1.70
2022-11-08T13:22:31.221Z,1.38
2022-11-08T13:24:58.664Z,1.48
2022-11-08T13:27:44.234Z,4.07
2022-11-08T13:30:16.675Z,4.05
2022-11-08T13:32:42.924Z,3.78
2022-11-08T13:35:16.725Z,2.30
2022-11-08T13:37:52.231Z,1.55
2022-11-08T13:40:36.937Z,1.52
2022-11-08T13:43:21.917Z,4.22
2022-11-08T13:45:48.696Z,3.15
2022-11-08T13:48:24.541Z,5.75
2022-11-08T13:50:53.997Z,0.68
2022-11-08T13:53:20.254Z,1.65
2022-11-08T13:56:22.114Z,1.45
2022-11-08T13:58:48.534Z,2.42
2022-11-08T14:01:20.600Z,3.45
2022-11-08T14:03:46.897Z,2.05
2022-11-08T14:06:32.086Z,2.40
2022-11-08T14:08:58.436Z,1.75
2022-11-08T14:11:36.686Z,3.33
2022-11-08T14:14:08.213Z,1.42
2022-11-08T14:16:42.506Z,5.43
2022-11-08T14:19:22.982Z,4.18
2022-11-08T14:21:56.882Z,2.30
2022-11-08T14:24:31.092Z,2.17
2022-11-08T14:26:57.385Z,1.58
2022-11-08T14:29:24.369Z,4.18
2022-11-08T14:32:06.073Z,2.45
2022-11-08T14:34:36.711Z,0.80
2022-11-08T14:37:04.169Z,4.00
2022-11-08T14:39:31.959Z,1.02
2022-11-08T14:41:59.953Z,1.85
2022-11-08T14:44:27.158Z,1.40
2022-11-08T14:46:53.641Z,1.38
2022-11-08T14:49:21.660Z,1.33
2022-11-08T14:51:48.605Z,1.60
2022-11-08T14:54:22.507Z,1.25
2022-11-08T14:56:50.246Z,2.70
2022-11-08T14:59:16.971Z,4.63
2022-11-08T15:01:49.701Z,3.00
2022-11-08T15:04:25.911Z,2.42
2022-11-08T15:06:53.272Z,3.83
2022-11-08T15:09:27.718Z,0.85
2022-11-08T15:11:59.903Z,1.30
2022-11-08T15:14:27.656Z,1.70
2022-11-08T15:16:59.884Z,1.45
2022-11-08T15:19:39.567Z,0.80
2022-11-08T15:22:25.769Z,7.20
2022-11-08T15:25:10.801Z,3.85
2022-11-08T15:27:37.138Z,1.80
2022-11-08T15:30:23.706Z,2.55
2022-11-08T15:32:50.313Z,4.18
2022-11-08T15:35:33.400Z,1.55
2022-11-08T15:38:20.421Z,1.92
2022-11-08T15:40:54.384Z,1.33
2022-11-08T15:43:29.719Z,2.47
2022-11-08T15:45:56.460Z,1.58
2022-11-08T15:48:23.982Z,2.22
2022-11-08T15:50:50.341Z,4.05
2022-11-08T15:53:17.606Z,2.58
2022-11-08T15:55:49.042Z,1.48
2022-11-08T15:58:25.726Z,2.80
2022-11-08T16:00:52.192Z,1.48
2022-11-08T16:03:18.879Z,2.97
2022-11-08T16:05:45.409Z,3.58
2022-11-08T16:08:14.437Z,1.65
2022-11-08T16:10:46.542Z,1.90
2022-11-08T16:13:17.004Z,0.93
2022-11-08T16:15:43.381Z,3.55
2022-11-08T16:18:10.105Z,4.65
2022-11-08T16:20:37.456Z,7.03
2022-11-08T16:23:05.751Z,3.65
2022-11-08T16:26:00.563Z,2.42
2022-11-08T16:28:26.864Z,1.92
2022-11-08T16:30:53.755Z,2.65
2022-11-08T16:33:21.521Z,1.40
2022-11-08T16:35:48.422Z,4.53
2022-11-08T16:38:15.448Z,1.15
2022-11-08T16:40:42.272Z,3.22
2022-11-08T16:43:11.804Z,1.60
2022-11-08T16:46:03.677Z,1.52
2022-11-08T16:48:25.760Z,1.65
2022-11-08T16:50:58.488Z,3.03
2022-11-08T16:53:25.734Z,2.17
2022-11-08T16:55:52.051Z,4.28
2022-11-08T16:58:18.534Z,1.23
2022-11-08T17:00:45.289Z,6.32
2022-11-08T17:03:13.496Z,2.00
2022-11-08T17:05:40.536Z,2.83
2022-11-08T17:08:06.799Z,5.15
2022-11-08T17:10:33.094Z,2.05
2022-11-08T17:12:59.712Z,3.65
2022-11-08T17:15:27.012Z,3.03
2022-11-08T17:17:54.089Z,2.80
2022-11-08T17:20:21.221Z,3.25
2022-11-08T17:22:48.046Z,3.13
2022-11-08T17:25:16.182Z,5.65
2022-11-08T17:27:42.799Z,5.97
2022-11-08T17:30:10.163Z,1.73
2022-11-08T17:32:36.991Z,2.38
2022-11-08T17:35:07.224Z,1.73
2022-11-08T17:37:33.643Z,2.45
2022-11-08T17:40:00.649Z,1.73
2022-11-08T17:42:27.946Z,3.25
2022-11-08T17:44:57.674Z,5.80
2022-11-08T17:47:24.427Z,4.90
2022-11-08T17:49:50.853Z,1.42
2022-11-08T17:52:17.174Z,2.90
2022-11-08T17:54:43.501Z,2.47
2022-11-08T17:57:09.815Z,2.83
2022-11-08T17:59:36.145Z,2.47
2022-11-08T18:02:03.171Z,2.60
2022-11-08T18:04:30.293Z,4.07
2022-11-08T18:06:56.766Z,3.40
2022-11-08T18:09:23.374Z,3.67
2022-11-08T18:11:49.652Z,2.42
2022-11-08T18:14:24.183Z,3.63
2022-11-08T18:16:53.542Z,3.95
2022-11-08T18:19:19.932Z,1.98
2022-11-08T18:21:46.324Z,2.33
2022-11-08T18:24:12.733Z,1.58
2022-11-08T18:26:39.529Z,3.03
2022-11-08T18:29:06.535Z,4.60
2022-11-08T18:31:33.074Z,1.92
2022-11-08T18:34:00.081Z,2.72
2022-11-08T18:36:27.925Z,2.85
2022-11-08T18:38:54.634Z,3.30
2022-11-08T18:41:22.693Z,1.15
2022-11-08T18:43:49.277Z,2.13
2022-11-08T18:46:17.516Z,2.30
2022-11-08T18:48:43.972Z,1.70
2022-11-08T18:51:11.820Z,3.88
2022-11-08T18:53:38.513Z,3.03
2022-11-08T18:56:05.059Z,6.63
2022-11-08T18:58:31.405Z,2.10
2022-11-08T19:00:57.828Z,2.78
2022-11-08T19:03:24.865Z,1.67
2022-11-08T19:05:51.205Z,3.67
2022-11-08T19:08:18.481Z,6.65
2022-11-08T19:10:58.236Z,2.10
2022-11-08T19:13:25.314Z,6.55
2022-11-08T19:16:02.110Z,4.50
2022-11-08T19:18:29.064Z,3.60
2022-11-08T19:20:59.819Z,3.85
2022-11-08T19:23:26.185Z,1.42
2022-11-08T19:26:05.837Z,5.03
2022-11-08T19:28:33.763Z,2.78
2022-11-08T19:31:00.251Z,2.50
2022-11-08T19:33:27.506Z,2.47
2022-11-08T19:35:54.466Z,1.98
2022-11-08T19:38:21.868Z,2.97
2022-11-08T19:40:48.600Z,3.03
2022-11-08T19:43:16.014Z,7.07
2022-11-08T19:45:44.564Z,1.08
2022-11-08T19:48:12.953Z,3.65
2022-11-08T19:50:42.989Z,3.03
2022-11-08T19:53:09.377Z,2.30
2022-11-08T19:55:35.668Z,6.35
2022-11-08T19:58:01.965Z,2.30
2022-11-08T20:00:28.319Z,2.63
2022-11-08T20:02:54.668Z,4.47
2022-11-08T20:05:20.980Z,2.50
2022-11-08T20:07:47.656Z,2.10
2022-11-08T20:10:14.103Z,2.85
2022-11-08T20:12:40.361Z,4.32
2022-11-08T20:15:07.178Z,2.17
2022-11-08T20:17:34.084Z,3.30
2022-11-08T20:20:00.580Z,1.98
2022-11-08T20:22:26.905Z,3.38
2022-11-08T20:24:53.208Z,2.83
2022-11-08T20:27:19.486Z,7.65
2022-11-08T20:29:45.760Z,1.45
2022-11-08T20:32:12.034Z,4.97
2022-11-08T20:34:38.676Z,3.17
2022-11-08T20:37:05.082Z,3.45
2022-11-08T20:39:31.566Z,2.20
2022-11-08T20:41:57.944Z,8.70
2022-11-08T20:44:24.272Z,1.88
2022-11-08T20:46:50.598Z,2.17
2022-11-08T20:49:16.973Z,2.50
2022-11-08T20:51:43.508Z,7.97
2022-11-08T20:54:10.220Z,1.52
2022-11-08T20:56:36.693Z,1.85
2022-11-08T20:59:03.295Z,2.97
2022-11-08T21:01:30.616Z,4.43
2022-11-08T21:03:57.129Z,1.80
2022-11-08T21:06:24.347Z,1.95
2022-11-08T21:08:59.157Z,2.00
2022-11-08T21:11:26.087Z,1.60
2022-11-08T21:13:52.525Z,1.02
2022-11-08T21:16:52.639Z,2.33
2022-11-08T21:19:05.431Z,2.13
2022-11-08T21:21:32.987Z,2.92
2022-11-08T21:23:59.368Z,3.72
2022-11-08T21:26:25.766Z,2.72
2022-11-08T21:28:52.304Z,1.80
2022-11-08T21:31:18.954Z,1.98
2022-11-08T21:33:45.520Z,3.83
2022-11-08T21:36:15.760Z,9.63
2022-11-08T21:38:42.375Z,4.40
2022-11-08T21:41:09.495Z,3.55
2022-11-08T21:43:36.555Z,5.13
2022-11-08T21:46:11.648Z,3.08
2022-11-08T21:48:37.948Z,2.78
2022-11-08T21:51:04.380Z,1.02
2022-11-08T21:53:30.695Z,3.92
2022-11-08T21:55:57.982Z,1.10
2022-11-08T21:58:24.389Z,2.40
2022-11-08T22:00:51.291Z,2.95
2022-11-08T22:03:17.606Z,2.55
2022-11-08T22:05:44.362Z,2.30
2022-11-08T22:08:10.902Z,2.28
2022-11-08T22:10:37.176Z,4.38
2022-11-08T22:13:03.531Z,2.45
2022-11-08T22:15:29.869Z,3.08
2022-11-08T22:21:05.762Z,4.82
2022-11-08T22:23:32.240Z,2.28
2022-11-08T22:25:58.513Z,2.15
2022-11-08T22:28:24.802Z,2.15
2022-11-08T22:30:51.866Z,1.48
2022-11-08T22:33:18.897Z,3.17
2022-11-08T22:35:46.034Z,1.60
2022-11-08T22:38:12.506Z,4.63
2022-11-08T22:40:39.823Z,3.95
2022-11-08T22:43:06.109Z,1.00
2022-11-08T22:45:36.945Z,1.33
2022-11-08T22:48:03.276Z,2.05
2022-11-08T22:50:29.560Z,2.03
2022-11-08T22:52:55.825Z,2.20
2022-11-08T22:55:22.084Z,1.83
2022-11-08T22:57:48.375Z,2.47
2022-11-08T23:00:15.512Z,1.40
2022-11-08T23:02:41.989Z,1.73
2022-11-08T23:05:08.608Z,4.93
2022-11-08T23:07:34.898Z,5.40
2022-11-08T23:10:01.173Z,1.77
2022-11-08T23:12:45.910Z,5.38
2022-11-08T23:15:30.688Z,2.25
2022-11-08T23:17:56.969Z,2.45
2022-11-08T23:20:41.884Z,1.63
2022-11-08T23:23:27.817Z,1.20
2022-11-08T23:25:54.480Z,1.75
2022-11-08T23:28:39.549Z,1.77
2022-11-08T23:31:24.317Z,3.40
2022-11-08T23:33:50.581Z,4.35
2022-11-08T23:36:16.959Z,1.45
2022-11-08T23:38:43.408Z,3.20
2022-11-08T23:41:28.804Z,5.70
2022-11-08T23:44:13.765Z,4.63
2022-11-08T23:46:40.448Z,5.28
2022-11-08T23:49:06.737Z,2.42
2022-11-08T23:51:33.212Z,3.58
2022-11-08T23:53:59.539Z,1.48
2022-11-08T23:56:27.064Z,1.75
2022-11-08T23:58:54.656Z,1.90
